sensor_id;sensor_type;location;lat;lon;timestamp;temperature;humidity
16968;DHT22;64862;54.398;10.126;2023-03-31T00:04:42;10.20;99.90
16968;DHT22;64862;54.398;10.126;2023-03-31T00:14:46;10.40;99.90
16968;DHT22;64862;54.398;10.126;2023-03-31T00:24:50;10.50;99.90
16968;DHT22;64862;54.398;10.126;2023-03-31T00:34:52;10.40;99.90
16968;DHT22;64862;54.398;10.126;2023-03-31T00:45:27;10.50;99.90
16968;DHT22;64862;54.398;10.126;2023-03-31T00:55:33;10.40;99.90
16968;DHT22;64862;54.398;10.126;2023-03-31T01:05:42;10.40;99.90
16968;DHT22;64862;54.398;10.126;2023-03-31T01:15:45;10.40;99.90
16968;DHT22;64862;54.398;10.126;2023-03-31T01:37:10;10.40;99.90
16968;DHT22;64862;54.398;10.126;2023-03-31T01:47:22;10.50;99.90
16968;DHT22;64862;54.398;10.126;2023-03-31T01:57:32;10.60;99.90
16968;DHT22;64862;54.398;10.126;2023-03-31T02:07:39;10.60;99.90
16968;DHT22;64862;54.398;10.126;2023-03-31T02:17:47;10.60;99.90
16968;DHT22;64862;54.398;10.126;2023-03-31T02:27:54;10.60;99.90
16968;DHT22;64862;54.398;10.126;2023-03-31T02:37:57;10.60;99.90
16968;DHT22;64862;54.398;10.126;2023-03-31T02:48:01;10.50;99.90
16968;DHT22;64862;54.398;10.126;2023-03-31T02:58:20;10.60;99.90
16968;DHT22;64862;54.398;10.126;2023-03-31T03:08:38;10.70;99.90
16968;DHT22;64862;54.398;10.126;2023-03-31T03:18:54;10.60;99.90
16968;DHT22;64862;54.398;10.126;2023-03-31T03:28:58;10.60;99.90
16968;DHT22;64862;54.398;10.126;2023-03-31T03:39:01;10.70;99.90
16968;DHT22;64862;54.398;10.126;2023-03-31T03:49:05;10.70;99.90
16968;DHT22;64862;54.398;10.126;2023-03-31T03:59:07;10.60;99.90
16968;DHT22;64862;54.398;10.126;2023-03-31T04:09:10;10.60;99.90
16968;DHT22;64862;54.398;10.126;2023-03-31T04:19:13;10.50;99.90
16968;DHT22;64862;54.398;10.126;2023-03-31T04:29:18;10.60;99.90
16968;DHT22;64862;54.398;10.126;2023-03-31T04:39:22;10.60;99.90
16968;DHT22;64862;54.398;10.126;2023-03-31T04:49:27;10.60;99.90
16968;DHT22;64862;54.398;10.126;2023-03-31T04:59:33;10.60;99.90
16968;DHT22;64862;54.398;10.126;2023-03-31T05:09:36;10.50;99.90
16968;DHT22;64862;54.398;10.126;2023-03-31T05:19:39;10.80;99.90
16968;DHT22;64862;54.398;10.126;2023-03-31T05:29:42;10.80;99.90
16968;DHT22;64862;54.398;10.126;2023-03-31T05:39:46;10.80;99.90
16968;DHT22;64862;54.398;10.126;2023-03-31T05:49:49;10.80;99.90
16968;DHT22;64862;54.398;10.126;2023-03-31T05:59:52;10.80;99.90
16968;DHT22;64862;54.398;10.126;2023-03-31T06:09:55;10.80;99.90
16968;DHT22;64862;54.398;10.126;2023-03-31T06:20:01;11.10;99.90
16968;DHT22;64862;54.398;10.126;2023-03-31T06:30:08;11.20;99.90
16968;DHT22;64862;54.398;10.126;2023-03-31T06:40:11;11.00;99.90
16968;DHT22;64862;54.398;10.126;2023-03-31T06:50:15;11.20;99.90
16968;DHT22;64862;54.398;10.126;2023-03-31T07:00:18;11.30;99.90
16968;DHT22;64862;54.398;10.126;2023-03-31T07:10:22;11.30;99.90
16968;DHT22;64862;54.398;10.126;2023-03-31T07:20:24;11.40;99.90
16968;DHT22;64862;54.398;10.126;2023-03-31T07:30:28;11.60;99.90
16968;DHT22;64862;54.398;10.126;2023-03-31T07:40:30;11.90;99.90
16968;DHT22;64862;54.398;10.126;2023-03-31T07:50:34;12.20;99.90
16968;DHT22;64862;54.398;10.126;2023-03-31T08:00:40;12.40;99.90
16968;DHT22;64862;54.398;10.126;2023-03-31T08:10:44;12.30;99.90
16968;DHT22;64862;54.398;10.126;2023-03-31T08:20:46;12.30;99.90
16968;DHT22;64862;54.398;10.126;2023-03-31T08:30:51;12.50;99.90
16968;DHT22;64862;54.398;10.126;2023-03-31T08:40:58;12.50;99.90
16968;DHT22;64862;54.398;10.126;2023-03-31T08:51:06;12.90;99.90
16968;DHT22;64862;54.398;10.126;2023-03-31T09:01:19;13.70;99.90
16968;DHT22;64862;54.398;10.126;2023-03-31T09:11:31;13.80;99.90
16968;DHT22;64862;54.398;10.126;2023-03-31T09:21:40;13.70;99.90
16968;DHT22;64862;54.398;10.126;2023-03-31T09:31:46;13.60;99.90
16968;DHT22;64862;54.398;10.126;2023-03-31T09:41:50;13.80;99.90
16968;DHT22;64862;54.398;10.126;2023-03-31T09:52:02;13.70;99.90
16968;DHT22;64862;54.398;10.126;2023-03-31T10:12:50;13.90;99.90
16968;DHT22;64862;54.398;10.126;2023-03-31T10:22:53;13.80;99.90
16968;DHT22;64862;54.398;10.126;2023-03-31T10:32:57;13.90;99.90
16968;DHT22;64862;54.398;10.126;2023-03-31T10:43:03;14.00;99.90
16968;DHT22;64862;54.398;10.126;2023-03-31T10:53:11;13.90;99.90
16968;DHT22;64862;54.398;10.126;2023-03-31T11:03:21;13.40;99.90
16968;DHT22;64862;54.398;10.126;2023-03-31T11:13:35;13.10;99.90
16968;DHT22;64862;54.398;10.126;2023-03-31T11:23:41;13.00;99.90
16968;DHT22;64862;54.398;10.126;2023-03-31T11:33:56;13.30;99.90
16968;DHT22;64862;54.398;10.126;2023-03-31T11:44:03;13.50;99.90
16968;DHT22;64862;54.398;10.126;2023-03-31T11:54:15;13.40;99.90
16968;DHT22;64862;54.398;10.126;2023-03-31T12:04:26;13.40;99.90
16968;DHT22;64862;54.398;10.126;2023-03-31T12:14:35;13.60;99.90
16968;DHT22;64862;54.398;10.126;2023-03-31T12:24:38;13.40;99.90
16968;DHT22;64862;54.398;10.126;2023-03-31T12:34:45;13.60;99.90
16968;DHT22;64862;54.398;10.126;2023-03-31T12:44:54;13.40;99.90
16968;DHT22;64862;54.398;10.126;2023-03-31T13:05:46;13.10;99.90
16968;DHT22;64862;54.398;10.126;2023-03-31T13:15:52;13.20;99.90
16968;DHT22;64862;54.398;10.126;2023-03-31T13:25:55;13.70;99.90
16968;DHT22;64862;54.398;10.126;2023-03-31T13:47:04;13.30;99.90
16968;DHT22;64862;54.398;10.126;2023-03-31T13:57:42;13.20;99.90
16968;DHT22;64862;54.398;10.126;2023-03-31T14:07:53;13.50;99.90
16968;DHT22;64862;54.398;10.126;2023-03-31T14:17:57;13.60;99.90
16968;DHT22;64862;54.398;10.126;2023-03-31T14:28:16;13.60;99.90
16968;DHT22;64862;54.398;10.126;2023-03-31T14:38:21;13.40;99.90
16968;DHT22;64862;54.398;10.126;2023-03-31T14:48:26;13.30;99.90
16968;DHT22;64862;54.398;10.126;2023-03-31T14:58:30;13.20;99.90
16968;DHT22;64862;54.398;10.126;2023-03-31T15:08:36;13.30;99.90
16968;DHT22;64862;54.398;10.126;2023-03-31T15:18:39;13.30;99.90
16968;DHT22;64862;54.398;10.126;2023-03-31T15:28:48;13.20;99.90
16968;DHT22;64862;54.398;10.126;2023-03-31T15:38:55;13.00;99.90
16968;DHT22;64862;54.398;10.126;2023-03-31T15:49:01;12.70;99.90
16968;DHT22;64862;54.398;10.126;2023-03-31T15:59:04;12.60;99.90
16968;DHT22;64862;54.398;10.126;2023-03-31T16:09:09;12.20;99.90
16968;DHT22;64862;54.398;10.126;2023-03-31T16:19:14;12.10;99.90
16968;DHT22;64862;54.398;10.126;2023-03-31T16:29:24;11.90;99.90
16968;DHT22;64862;54.398;10.126;2023-03-31T16:39:26;11.90;99.90
16968;DHT22;64862;54.398;10.126;2023-03-31T16:49:30;11.80;99.90
16968;DHT22;64862;54.398;10.126;2023-03-31T16:59:32;11.80;99.90
16968;DHT22;64862;54.398;10.126;2023-03-31T17:09:36;11.60;99.90
16968;DHT22;64862;54.398;10.126;2023-03-31T17:19:38;11.60;99.90
16968;DHT22;64862;54.398;10.126;2023-03-31T17:29:42;11.50;99.90
16968;DHT22;64862;54.398;10.126;2023-03-31T17:39:44;11.40;99.90
16968;DHT22;64862;54.398;10.126;2023-03-31T17:49:48;11.40;99.90
16968;DHT22;64862;54.398;10.126;2023-03-31T17:59:51;11.10;99.90
16968;DHT22;64862;54.398;10.126;2023-03-31T18:09:55;11.00;99.90
16968;DHT22;64862;54.398;10.126;2023-03-31T18:19:57;11.00;99.90
16968;DHT22;64862;54.398;10.126;2023-03-31T18:30:01;11.00;99.90
16968;DHT22;64862;54.398;10.126;2023-03-31T18:40:04;11.10;99.90
16968;DHT22;64862;54.398;10.126;2023-03-31T18:50:10;11.00;99.90
16968;DHT22;64862;54.398;10.126;2023-03-31T19:00:14;11.00;99.90
16968;DHT22;64862;54.398;10.126;2023-03-31T19:10:18;11.00;99.90
16968;DHT22;64862;54.398;10.126;2023-03-31T19:20:21;11.00;99.90
16968;DHT22;64862;54.398;10.126;2023-03-31T19:30:25;10.90;99.90
16968;DHT22;64862;54.398;10.126;2023-03-31T19:40:27;10.80;99.90
16968;DHT22;64862;54.398;10.126;2023-03-31T19:50:31;10.80;99.90
16968;DHT22;64862;54.398;10.126;2023-03-31T20:00:33;10.80;99.90
16968;DHT22;64862;54.398;10.126;2023-03-31T20:10:37;10.80;99.90
16968;DHT22;64862;54.398;10.126;2023-03-31T20:20:40;10.90;99.90
16968;DHT22;64862;54.398;10.126;2023-03-31T20:30:44;10.80;99.90
16968;DHT22;64862;54.398;10.126;2023-03-31T20:40:46;10.70;99.90
16968;DHT22;64862;54.398;10.126;2023-03-31T20:50:50;10.70;99.90
16968;DHT22;64862;54.398;10.126;2023-03-31T21:00:56;10.70;99.90
16968;DHT22;64862;54.398;10.126;2023-03-31T21:11:00;10.80;99.90
16968;DHT22;64862;54.398;10.126;2023-03-31T21:21:04;10.70;99.90
16968;DHT22;64862;54.398;10.126;2023-03-31T21:31:10;10.60;99.90
16968;DHT22;64862;54.398;10.126;2023-03-31T21:41:14;10.50;99.90
16968;DHT22;64862;54.398;10.126;2023-03-31T21:51:19;10.40;99.90
16968;DHT22;64862;54.398;10.126;2023-03-31T22:01:22;9.90;99.90
16968;DHT22;64862;54.398;10.126;2023-03-31T22:11:25;9.40;99.90
16968;DHT22;64862;54.398;10.126;2023-03-31T22:21:28;9.10;99.90
16968;DHT22;64862;54.398;10.126;2023-03-31T22:31:32;8.80;99.90
16968;DHT22;64862;54.398;10.126;2023-03-31T22:41:34;8.50;99.90
16968;DHT22;64862;54.398;10.126;2023-03-31T22:51:38;8.40;99.90
16968;DHT22;64862;54.398;10.126;2023-03-31T23:01:41;8.30;99.90
16968;DHT22;64862;54.398;10.126;2023-03-31T23:11:47;8.20;99.90
16968;DHT22;64862;54.398;10.126;2023-03-31T23:21:51;8.20;99.90
16968;DHT22;64862;54.398;10.126;2023-03-31T23:31:54;8.20;99.90
16968;DHT22;64862;54.398;10.126;2023-03-31T23:41:56;8.10;99.90
16968;DHT22;64862;54.398;10.126;2023-03-31T23:52:00;8.00;99.90
